Time;durP1;ratioP1;P1;durP2;ratioP2;P2;SDS_P1;SDS_P2;PMS_P1;PMS_P2;Temp;Humidity;BMP_temperature;BMP_pressure;BME280_temperature;BME280_humidity;BME280_pressure;Samples;Min_cycle;Max_cycle;Signal;HPM_P1;HPM_P2
2022/05/31 00:02:23;;;;;;;4.63;2.53;;;8.40;99.90;;;;;;5018552;28;20255;-82
2022/05/31 00:04:49;;;;;;;3.90;2.70;;;8.50;99.90;;;;;;5019758;28;20172;-82
2022/05/31 00:07:15;;;;;;;4.37;3.00;;;8.50;99.90;;;;;;5020222;28;20922;-82
2022/05/31 00:09:41;;;;;;;3.50;2.67;;;8.50;99.90;;;;;;5020006;28;20171;-82
2022/05/31 00:12:07;;;;;;;7.40;3.07;;;8.30;99.90;;;;;;5019114;28;20200;-81
2022/05/31 00:14:33;;;;;;;7.53;3.03;;;8.30;99.90;;;;;;5019731;28;20173;-82
2022/05/31 00:17:00;;;;;;;6.63;2.83;;;8.30;99.90;;;;;;5018840;28;20175;-82
2022/05/31 00:19:26;;;;;;;8.23;3.03;;;8.10;99.90;;;;;;5018575;28;20192;-82
2022/05/31 00:22:09;;;;;;;3.93;2.80;;;8.10;99.90;;;;;;5018868;28;20209;-81
2022/05/31 00:24:35;;;;;;;3.27;2.97;;;8.00;99.90;;;;;;5017564;28;20177;-82
2022/05/31 00:27:04;;;;;;;6.17;2.37;;;8.00;99.90;;;;;;5019242;28;20656;-82
2022/05/31 00:29:30;;;;;;;7.20;3.20;;;8.00;99.90;;;;;;5020022;28;20167;-82
2022/05/31 00:31:58;;;;;;;6.80;3.10;;;8.00;99.90;;;;;;5018385;28;20190;-81
2022/05/31 00:34:25;;;;;;;3.20;2.80;;;8.10;99.90;;;;;;5021744;28;20239;-82
2022/05/31 00:36:51;;;;;;;8.03;3.03;;;8.00;99.90;;;;;;5020090;28;20213;-82
2022/05/31 00:39:18;;;;;;;5.90;2.70;;;7.90;99.90;;;;;;5023128;28;20184;-82
2022/05/31 00:41:56;;;;;;;5.67;3.20;;;7.90;99.90;;;;;;5022163;28;20678;-81
2022/05/31 00:44:27;;;;;;;3.77;3.00;;;7.80;99.90;;;;;;5021527;28;20186;-82
2022/05/31 00:46:58;;;;;;;7.67;3.33;;;7.90;99.90;;;;;;5022824;28;20633;-81
2022/05/31 00:49:49;;;;;;;7.57;3.20;;;7.90;99.90;;;;;;5023251;28;20234;-81
2022/05/31 00:52:19;;;;;;;6.20;2.97;;;7.90;99.90;;;;;;5022582;28;20189;-81
2022/05/31 00:55:01;;;;;;;12.17;3.10;;;7.70;99.90;;;;;;5022003;28;20173;-82
2022/05/31 00:57:28;;;;;;;5.43;3.10;;;7.70;99.90;;;;;;5023519;28;20181;-81
2022/05/31 00:59:58;;;;;;;10.30;3.10;;;7.70;99.90;;;;;;5023614;28;20173;-81
2022/05/31 01:02:25;;;;;;;4.57;3.67;;;7.80;99.90;;;;;;5023529;28;20198;-81
2022/05/31 01:04:53;;;;;;;6.50;3.50;;;7.80;99.90;;;;;;5023954;28;20166;-81
2022/05/31 01:07:18;;;;;;;5.97;3.63;;;7.70;99.90;;;;;;5022930;28;20681;-81
2022/05/31 01:09:44;;;;;;;9.07;3.63;;;7.70;99.90;;;;;;5018603;28;20170;-82
2022/05/31 01:12:12;;;;;;;6.27;3.87;;;7.70;99.90;;;;;;5018430;28;20197;-82
2022/05/31 01:14:38;;;;;;;8.33;3.63;;;7.80;99.90;;;;;;5017765;28;20178;-81
2022/05/31 01:17:06;;;;;;;4.50;3.33;;;7.70;99.90;;;;;;5017975;28;20201;-81
2022/05/31 01:22:16;;;;;;;4.63;3.10;;;7.60;99.90;;;;;;5018897;28;20206;-82
2022/05/31 01:24:56;;;;;;;6.10;3.90;;;7.70;99.90;;;;;;5017698;28;20166;-82
2022/05/31 01:27:44;;;;;;;4.27;3.37;;;7.70;99.90;;;;;;5016408;28;20174;-82
2022/05/31 01:30:10;;;;;;;8.17;3.50;;;7.50;99.90;;;;;;5017224;28;20220;-81
2022/05/31 01:32:44;;;;;;;7.43;3.87;;;7.60;99.90;;;;;;5016277;28;20170;-82
2022/05/31 01:35:18;;;;;;;9.70;4.23;;;7.60;99.90;;;;;;5017516;28;20165;-81
2022/05/31 01:37:52;;;;;;;4.73;3.83;;;7.60;99.90;;;;;;5014878;28;20173;-82
2022/05/31 01:40:36;;;;;;;8.17;4.20;;;7.60;99.90;;;;;;5017250;28;20173;-82
2022/05/31 01:43:02;;;;;;;5.27;3.87;;;7.60;99.90;;;;;;5015140;28;20650;-82
2022/05/31 01:45:35;;;;;;;6.67;4.00;;;7.50;99.90;;;;;;5017159;28;20178;-82
2022/05/31 01:48:04;;;;;;;8.10;3.83;;;7.50;99.90;;;;;;5015547;28;20181;-82
2022/05/31 01:50:31;;;;;;;10.13;4.77;;;7.40;99.90;;;;;;5015255;28;20192;-82
2022/05/31 01:52:57;;;;;;;8.33;4.53;;;7.30;99.90;;;;;;5018261;28;20169;-81
2022/05/31 01:55:24;;;;;;;7.57;4.30;;;7.40;99.90;;;;;;5018511;28;20191;-81
2022/05/31 01:57:55;;;;;;;9.90;4.93;;;7.30;99.90;;;;;;5019524;28;20173;-82
2022/05/31 02:00:21;;;;;;;7.67;4.40;;;7.30;99.90;;;;;;5018848;28;20328;-81
2022/05/31 02:02:51;;;;;;;8.97;4.70;;;7.30;99.90;;;;;;5017942;28;20173;-81
2022/05/31 02:05:18;;;;;;;7.37;4.40;;;7.20;99.90;;;;;;5015021;28;20264;-82
2022/05/31 02:08:02;;;;;;;7.43;4.43;;;7.30;99.90;;;;;;5018321;28;20169;-81
2022/05/31 02:10:28;;;;;;;6.07;4.13;;;7.30;99.90;;;;;;5018519;28;20192;-81
2022/05/31 02:12:55;;;;;;;8.40;4.30;;;7.20;99.90;;;;;;5017587;28;20210;-81
2022/05/31 02:15:22;;;;;;;9.30;4.77;;;7.10;99.90;;;;;;5018418;28;20179;-82
2022/05/31 02:17:49;;;;;;;9.67;4.30;;;7.10;99.90;;;;;;5018404;28;20168;-81
2022/05/31 02:20:14;;;;;;;8.23;4.90;;;7.20;99.90;;;;;;5018040;28;20173;-82
2022/05/31 02:22:40;;;;;;;8.63;4.73;;;7.20;99.90;;;;;;5016774;28;20644;-81
2022/05/31 02:25:08;;;;;;;8.23;4.30;;;7.20;99.90;;;;;;5017562;28;20201;-82
2022/05/31 02:27:33;;;;;;;7.70;4.67;;;7.30;99.90;;;;;;5017128;28;20173;-81
2022/05/31 02:30:03;;;;;;;8.07;4.20;;;7.20;99.90;;;;;;5018234;28;20170;-82
2022/05/31 02:32:28;;;;;;;8.97;4.70;;;7.20;99.90;;;;;;5016913;28;20568;-82
2022/05/31 02:34:55;;;;;;;6.30;3.97;;;7.10;99.90;;;;;;5017449;28;20189;-82
2022/05/31 02:37:21;;;;;;;10.17;4.80;;;7.20;99.90;;;;;;5018326;28;20184;-81
2022/05/31 02:39:47;;;;;;;8.17;4.30;;;7.10;99.90;;;;;;5019126;28;20195;-81
2022/05/31 02:42:15;;;;;;;7.17;4.53;;;7.20;99.90;;;;;;5017919;28;20657;-81
2022/05/31 02:44:41;;;;;;;9.00;4.77;;;7.10;99.90;;;;;;5017892;28;20551;-81
2022/05/31 02:47:08;;;;;;;12.10;4.87;;;7.10;99.90;;;;;;5017578;28;20176;-81
2022/05/31 02:49:36;;;;;;;10.30;5.17;;;7.10;99.90;;;;;;5019876;28;20182;-81
2022/05/31 02:52:02;;;;;;;9.20;4.80;;;7.10;99.90;;;;;;5015139;28;20204;-81
2022/05/31 02:54:28;;;;;;;8.80;4.60;;;7.00;99.90;;;;;;5017933;28;20203;-81
2022/05/31 02:56:54;;;;;;;10.03;4.57;;;7.10;99.90;;;;;;5018956;28;20965;-81
2022/05/31 02:59:20;;;;;;;11.23;4.97;;;7.00;99.90;;;;;;5017007;28;20176;-82
2022/05/31 03:01:47;;;;;;;8.50;4.60;;;7.00;99.90;;;;;;5016474;28;20222;-83
2022/05/31 03:04:13;;;;;;;8.87;4.70;;;6.90;99.90;;;;;;5016440;28;20171;-82
2022/05/31 03:06:40;;;;;;;12.13;5.13;;;7.00;99.90;;;;;;5015251;28;20178;-82
2022/05/31 03:09:07;;;;;;;9.37;4.70;;;6.90;99.90;;;;;;5016013;28;20178;-82
2022/05/31 03:11:43;;;;;;;12.90;5.07;;;6.90;99.90;;;;;;5014975;28;20193;-81
2022/05/31 03:14:32;;;;;;;9.97;5.47;;;6.90;99.90;;;;;;5014567;28;20180;-81
2022/05/31 03:17:08;;;;;;;9.53;4.90;;;6.90;99.90;;;;;;5015293;28;20191;-82
2022/05/31 03:19:38;;;;;;;8.33;5.13;;;6.90;99.90;;;;;;5017777;28;20174;-81
2022/05/31 03:22:11;;;;;;;9.20;5.50;;;7.00;99.90;;;;;;5016405;28;20280;-81
2022/05/31 03:25:02;;;;;;;8.67;5.27;;;7.00;99.90;;;;;;5017160;28;20194;-81
2022/05/31 03:27:28;;;;;;;9.80;5.37;;;7.00;99.90;;;;;;5017649;28;20708;-81
2022/05/31 03:29:58;;;;;;;10.40;5.27;;;7.00;99.90;;;;;;5019038;28;20301;-81
2022/05/31 03:32:24;;;;;;;10.63;4.93;;;7.00;99.90;;;;;;5017652;28;20193;-81
2022/05/31 03:34:50;;;;;;;11.00;5.30;;;7.00;99.90;;;;;;5018360;28;20658;-81
2022/05/31 03:37:15;;;;;;;10.03;5.03;;;7.00;99.90;;;;;;5018248;28;20170;-81
2022/05/31 03:39:41;;;;;;;9.20;5.80;;;7.00;99.90;;;;;;5019320;28;20184;-81
2022/05/31 03:42:07;;;;;;;12.87;5.17;;;7.00;99.90;;;;;;5017659;28;20196;-81
2022/05/31 03:44:34;;;;;;;8.90;5.20;;;7.10;99.90;;;;;;5018003;28;20178;-81
2022/05/31 03:47:01;;;;;;;11.90;6.10;;;7.10;99.90;;;;;;5015332;28;20169;-81
2022/05/31 03:49:27;;;;;;;12.20;5.07;;;7.00;99.90;;;;;;5019527;28;20197;-81
2022/05/31 03:51:53;;;;;;;9.20;5.80;;;7.10;99.90;;;;;;5017354;28;20544;-81
2022/05/31 03:54:18;;;;;;;11.43;5.80;;;7.20;99.90;;;;;;5020119;28;20517;-81
2022/05/31 03:56:44;;;;;;;19.70;5.83;;;7.30;99.90;;;;;;5019831;28;20185;-82
2022/05/31 03:59:10;;;;;;;12.83;5.90;;;7.30;99.90;;;;;;5019175;28;20513;-82
2022/05/31 04:01:35;;;;;;;13.30;6.20;;;7.20;99.90;;;;;;5019292;28;20351;-81
2022/05/31 04:04:03;;;;;;;9.23;5.90;;;7.20;99.90;;;;;;5021008;28;20181;-81
2022/05/31 04:06:30;;;;;;;10.87;5.97;;;7.30;99.90;;;;;;5019252;28;20184;-81
2022/05/31 04:08:56;;;;;;;9.47;6.73;;;7.20;99.90;;;;;;5019796;28;20177;-81
2022/05/31 04:11:21;;;;;;;12.17;6.70;;;7.20;99.90;;;;;;5020338;28;20197;-81
2022/05/31 04:13:47;;;;;;;12.53;6.00;;;7.30;99.90;;;;;;5019426;28;20166;-81
2022/05/31 04:16:15;;;;;;;13.57;7.03;;;7.30;99.90;;;;;;5020218;28;20190;-81
2022/05/31 04:18:41;;;;;;;10.37;6.60;;;7.30;99.90;;;;;;5019844;28;20178;-81
2022/05/31 04:21:10;;;;;;;10.03;6.20;;;7.30;99.90;;;;;;5020834;28;20242;-81
2022/05/31 04:26:21;;;;;;;10.87;6.57;;;7.40;99.90;;;;;;5020598;28;20175;-81
2022/05/31 04:28:47;;;;;;;12.17;6.17;;;7.30;99.90;;;;;;5018649;28;20173;-81
2022/05/31 04:31:13;;;;;;;11.07;7.00;;;7.50;99.90;;;;;;5019933;28;20245;-81
2022/05/31 04:33:39;;;;;;;12.40;5.90;;;7.70;99.90;;;;;;5019175;28;20220;-81
2022/05/31 04:36:08;;;;;;;9.63;5.80;;;8.00;99.90;;;;;;5018809;28;20201;-82
2022/05/31 04:38:34;;;;;;;10.93;6.20;;;8.10;99.90;;;;;;5018818;28;20201;-81
2022/05/31 04:41:00;;;;;;;8.83;5.63;;;8.40;99.90;;;;;;5017723;28;20568;-81
2022/05/31 04:43:26;;;;;;;14.93;5.70;;;8.50;99.90;;;;;;5018603;28;20173;-81
2022/05/31 04:45:51;;;;;;;7.70;5.03;;;8.70;99.90;;;;;;5018427;28;20202;-81
2022/05/31 04:48:17;;;;;;;8.00;4.70;;;9.20;99.90;;;;;;5021105;28;20297;-81
2022/05/31 04:50:43;;;;;;;7.83;4.60;;;9.20;99.90;;;;;;5020168;28;20195;-81
2022/05/31 04:53:09;;;;;;;11.30;4.50;;;9.20;99.90;;;;;;5015992;28;20186;-81
2022/05/31 04:55:34;;;;;;;8.10;4.87;;;9.20;99.90;;;;;;5014087;28;20196;-81
2022/05/31 04:58:00;;;;;;;9.33;5.13;;;9.00;99.90;;;;;;5011070;28;20171;-82
2022/05/31 05:00:27;;;;;;;10.70;4.90;;;9.10;99.90;;;;;;5012564;28;20183;-81
2022/05/31 05:02:52;;;;;;;9.33;4.70;;;9.00;99.90;;;;;;5012136;28;20167;-82
2022/05/31 05:05:18;;;;;;;6.57;5.20;;;9.40;99.90;;;;;;5012100;28;20178;-82
2022/05/31 05:07:44;;;;;;;6.60;4.77;;;9.30;99.90;;;;;;5020669;28;20184;-82
2022/05/31 05:10:10;;;;;;;13.20;5.03;;;9.50;99.90;;;;;;5020317;28;20187;-82
2022/05/31 05:12:36;;;;;;;9.80;5.37;;;9.30;99.90;;;;;;5019887;28;20180;-82
2022/05/31 05:15:05;;;;;;;10.37;4.93;;;9.20;99.90;;;;;;5021253;28;20522;-82
2022/05/31 05:17:31;;;;;;;7.77;5.27;;;9.30;99.90;;;;;;5020448;28;20230;-82
2022/05/31 05:19:57;;;;;;;9.60;4.90;;;9.40;99.90;;;;;;5020413;28;20266;-82
2022/05/31 05:22:23;;;;;;;9.93;5.10;;;9.60;99.90;;;;;;5020595;28;20238;-82
2022/05/31 05:24:49;;;;;;;9.40;5.20;;;9.70;99.90;;;;;;5019687;28;20175;-82
2022/05/31 05:27:15;;;;;;;8.93;4.90;;;9.60;99.90;;;;;;5017152;28;20168;-82
2022/05/31 05:32:24;;;;;;;10.00;5.57;;;9.80;99.90;;;;;;5018308;28;20237;-82
2022/05/31 05:34:54;;;;;;;7.43;4.80;;;9.80;99.90;;;;;;5016944;28;20623;-82
2022/05/31 05:37:21;;;;;;;10.83;5.70;;;9.80;99.90;;;;;;5016500;28;20170;-83
2022/05/31 05:39:47;;;;;;;10.27;5.10;;;9.80;99.90;;;;;;5016026;28;20175;-84
2022/05/31 05:42:14;;;;;;;7.77;4.87;;;9.90;99.90;;;;;;5015418;28;20640;-84
2022/05/31 05:44:40;;;;;;;9.03;5.00;;;10.00;99.90;;;;;;5017849;28;20321;-84
2022/05/31 05:47:08;;;;;;;19.97;5.27;;;10.10;99.90;;;;;;5017690;28;20189;-83
2022/05/31 05:49:35;;;;;;;12.30;5.47;;;10.10;99.90;;;;;;5017120;28;20173;-82
2022/05/31 05:52:03;;;;;;;10.33;4.97;;;10.10;99.90;;;;;;5014332;28;20194;-84
2022/05/31 05:54:29;;;;;;;10.97;4.80;;;9.80;99.90;;;;;;5018322;28;20174;-84
2022/05/31 05:56:55;;;;;;;11.07;5.40;;;10.00;99.90;;;;;;5014274;28;20200;-84
2022/05/31 05:59:20;;;;;;;10.20;5.20;;;9.90;99.90;;;;;;5013606;28;20195;-87
2022/05/31 06:01:50;;;;;;;12.27;5.33;;;10.00;99.90;;;;;;5013951;28;20202;-84
2022/05/31 06:04:28;;;;;;;13.57;5.00;;;10.00;99.90;;;;;;5012746;28;20175;-85
2022/05/31 06:07:25;;;;;;;7.53;4.97;;;10.30;99.90;;;;;;5013581;28;20190;-84
2022/05/31 06:10:17;;;;;;;9.40;4.73;;;10.60;99.90;;;;;;5012984;28;20182;-86
2022/05/31 06:12:50;;;;;;;6.57;4.53;;;10.70;99.90;;;;;;5012614;28;20267;-85
2022/05/31 06:15:20;;;;;;;13.83;4.63;;;10.60;99.90;;;;;;5011223;28;20223;-86
2022/05/31 06:17:49;;;;;;;13.30;4.93;;;10.60;99.90;;;;;;5013270;28;20644;-85
2022/05/31 06:20:15;;;;;;;6.23;4.40;;;10.70;99.90;;;;;;5013337;28;20942;-85
2022/05/31 06:22:42;;;;;;;11.37;4.83;;;10.90;99.90;;;;;;5013372;28;20656;-84
2022/05/31 06:25:12;;;;;;;9.57;4.80;;;10.80;99.90;;;;;;5013952;28;20260;-84
2022/05/31 06:27:37;;;;;;;10.17;4.47;;;11.00;99.90;;;;;;5012731;28;20243;-83
2022/05/31 06:30:04;;;;;;;15.20;4.93;;;11.10;99.90;;;;;;5013418;28;20172;-85
2022/05/31 06:32:30;;;;;;;6.03;4.40;;;11.30;99.90;;;;;;5012414;28;20631;-84
2022/05/31 06:34:56;;;;;;;10.00;4.90;;;11.50;99.90;;;;;;5012994;28;20216;-83
2022/05/31 06:37:22;;;;;;;13.00;4.30;;;11.80;99.90;;;;;;5013024;28;20180;-85
2022/05/31 06:39:47;;;;;;;6.77;4.60;;;11.70;99.90;;;;;;5013956;28;20641;-84
2022/05/31 06:42:13;;;;;;;18.57;4.57;;;11.70;99.90;;;;;;5013434;28;20213;-84
2022/05/31 06:44:41;;;;;;;7.73;4.43;;;11.70;99.90;;;;;;5013594;28;20177;-84
2022/05/31 06:47:08;;;;;;;8.77;4.37;;;11.90;99.90;;;;;;5012642;28;20204;-84
2022/05/31 06:49:35;;;;;;;11.00;4.43;;;12.30;99.90;;;;;;5013354;28;20650;-86
2022/05/31 06:57:34;;;;;;;7.90;4.13;;;12.50;99.90;;;;;;5018454;28;20260;-85
2022/05/31 07:00:00;;;;;;;10.77;4.23;;;12.40;99.90;;;;;;5016989;28;20177;-86
2022/05/31 07:02:27;;;;;;;11.10;4.70;;;12.30;99.90;;;;;;5017406;28;20263;-84
2022/05/31 07:04:54;;;;;;;7.97;4.20;;;12.60;99.90;;;;;;5017227;28;20207;-84
2022/05/31 07:07:20;;;;;;;7.07;4.17;;;12.70;99.90;;;;;;5016985;28;20184;-83
2022/05/31 07:09:46;;;;;;;8.53;5.07;;;12.70;99.90;;;;;;5018138;28;20661;-83
2022/05/31 07:12:12;;;;;;;9.13;4.27;;;12.50;99.90;;;;;;5014880;28;20213;-82
2022/05/31 07:14:38;;;;;;;5.60;4.13;;;12.60;99.90;;;;;;5016251;28;20178;-82
2022/05/31 07:17:04;;;;;;;5.60;4.30;;;12.40;99.90;;;;;;5016951;28;20245;-82
2022/05/31 07:19:30;;;;;;;8.83;4.60;;;12.50;99.90;;;;;;5016498;28;20676;-83
2022/05/31 07:22:00;;;;;;;14.83;4.70;;;12.50;99.90;;;;;;5016095;28;20700;-84
2022/05/31 07:24:27;;;;;;;9.30;4.47;;;12.50;99.90;;;;;;5015641;28;20650;-83
2022/05/31 07:26:53;;;;;;;7.90;4.43;;;12.60;99.90;;;;;;5016839;28;20189;-83
2022/05/31 07:29:19;;;;;;;8.97;4.43;;;12.80;99.90;;;;;;5017244;28;20681;-85
2022/05/31 07:31:45;;;;;;;8.13;4.83;;;12.90;99.90;;;;;;5016905;28;20194;-83
2022/05/31 07:34:15;;;;;;;8.43;4.67;;;13.10;99.90;;;;;;5016457;28;20179;-83
2022/05/31 07:36:42;;;;;;;8.77;5.00;;;13.30;99.90;;;;;;5017153;28;20174;-84
2022/05/31 07:39:14;;;;;;;7.33;4.47;;;13.00;99.90;;;;;;5017015;28;20253;-85
2022/05/31 07:41:40;;;;;;;8.97;4.77;;;12.90;99.90;;;;;;5015911;28;20216;-84
2022/05/31 07:44:06;;;;;;;11.57;4.90;;;13.00;99.90;;;;;;5014915;28;20221;-85
2022/05/31 07:46:33;;;;;;;8.43;4.77;;;13.00;99.90;;;;;;5016933;28;20669;-83
2022/05/31 07:49:00;;;;;;;10.27;4.53;;;13.00;99.90;;;;;;5016425;28;20173;-83
2022/05/31 07:51:27;;;;;;;10.97;4.47;;;12.90;99.90;;;;;;5016356;28;20237;-84
2022/05/31 07:53:53;;;;;;;5.90;4.30;;;12.60;99.90;;;;;;5016776;28;20188;-83
2022/05/31 07:56:19;;;;;;;7.13;4.30;;;12.80;99.90;;;;;;5016261;28;20189;-83
2022/05/31 07:58:46;;;;;;;8.37;4.73;;;12.80;99.90;;;;;;5015787;28;20212;-84
2022/05/31 08:01:22;;;;;;;7.27;4.63;;;12.90;99.90;;;;;;5016273;28;20617;-85
2022/05/31 08:03:49;;;;;;;6.17;4.43;;;12.90;99.90;;;;;;5016125;28;20190;-84
2022/05/31 08:06:18;;;;;;;12.10;5.37;;;13.00;99.90;;;;;;5017266;28;20646;-84
2022/05/31 08:08:44;;;;;;;8.47;4.47;;;13.00;99.90;;;;;;5017636;28;20271;-84
2022/05/31 08:11:15;;;;;;;7.43;4.30;;;12.90;99.90;;;;;;5016605;28;20225;-85
2022/05/31 08:13:41;;;;;;;5.97;4.47;;;12.90;99.90;;;;;;5016494;28;20174;-84
2022/05/31 08:16:09;;;;;;;9.33;4.77;;;13.00;99.90;;;;;;5016879;28;20540;-84
2022/05/31 08:18:35;;;;;;;8.07;4.80;;;13.10;99.90;;;;;;5015346;28;20266;-83
2022/05/31 08:21:07;;;;;;;10.00;4.90;;;13.10;99.90;;;;;;5015509;28;20209;-84
2022/05/31 08:23:34;;;;;;;6.40;4.23;;;13.20;99.90;;;;;;5015093;28;20173;-83
2022/05/31 08:26:01;;;;;;;6.30;4.10;;;13.40;99.90;;;;;;5015678;28;20174;-84
2022/05/31 08:28:27;;;;;;;8.57;4.47;;;13.40;99.90;;;;;;5016286;28;20268;-83
2022/05/31 08:31:03;;;;;;;10.33;4.83;;;13.30;99.90;;;;;;5015965;28;20278;-86
2022/05/31 08:33:29;;;;;;;10.37;4.70;;;13.30;99.90;;;;;;5016743;28;20224;-84
2022/05/31 08:35:56;;;;;;;8.87;4.73;;;13.30;99.90;;;;;;5017522;28;20181;-82
2022/05/31 08:38:22;;;;;;;6.43;4.83;;;13.30;99.90;;;;;;5017460;28;20243;-82
2022/05/31 08:40:56;;;;;;;11.80;4.77;;;13.20;99.90;;;;;;5017214;28;20890;-82
2022/05/31 08:43:42;;;;;;;10.77;4.80;;;13.20;99.90;;;;;;5017146;28;20197;-83
2022/05/31 08:46:13;;;;;;;8.67;4.57;;;13.30;99.90;;;;;;5017002;28;20176;-83
2022/05/31 08:49:00;;;;;;;8.40;4.80;;;13.10;99.90;;;;;;5015876;28;20194;-83
2022/05/31 08:51:53;;;;;;;6.07;4.37;;;13.30;99.90;;;;;;5016856;28;20202;-79
2022/05/31 08:57:36;;;;;;;10.60;4.87;;;13.40;99.90;;;;;;5007135;28;20639;-84
2022/05/31 09:00:08;;;;;;;10.10;4.93;;;13.50;99.90;;;;;;5016904;28;20269;-85
2022/05/31 09:03:07;;;;;;;10.60;5.17;;;13.50;99.90;;;;;;5016577;28;20238;-84
2022/05/31 09:05:45;;;;;;;9.73;4.70;;;13.50;99.90;;;;;;5017173;28;20173;-83
2022/05/31 09:08:34;;;;;;;7.77;4.90;;;13.60;99.90;;;;;;5016154;28;20167;-84
2022/05/31 09:11:11;;;;;;;9.00;4.50;;;13.60;99.90;;;;;;5016418;28;20212;-83
2022/05/31 09:13:44;;;;;;;12.13;4.77;;;13.60;99.90;;;;;;5015498;28;20171;-83
2022/05/31 09:16:38;;;;;;;9.50;4.57;;;13.50;99.90;;;;;;5015565;28;20178;-84
2022/05/31 09:19:07;;;;;;;10.30;4.70;;;13.40;99.90;;;;;;4996688;28;20253;-82
2022/05/31 09:21:43;;;;;;;9.87;4.70;;;13.40;99.90;;;;;;5015018;28;20222;-82
2022/05/31 09:24:12;;;;;;;8.30;4.80;;;13.50;99.90;;;;;;5016454;28;20178;-84
2022/05/31 09:26:40;;;;;;;9.83;4.73;;;13.50;99.90;;;;;;5015078;28;20190;-83
2022/05/31 09:29:25;;;;;;;9.30;5.10;;;13.40;99.90;;;;;;5015131;28;20662;-83
2022/05/31 09:32:20;;;;;;;11.90;4.27;;;13.40;99.90;;;;;;5015022;28;20212;-84
2022/05/31 09:35:06;;;;;;;7.07;4.50;;;13.40;99.90;;;;;;5015537;28;20190;-82
2022/05/31 09:37:35;;;;;;;11.00;4.90;;;13.40;99.90;;;;;;5015512;28;20174;-82
2022/05/31 09:40:22;;;;;;;8.20;4.93;;;13.40;99.90;;;;;;5015351;28;20259;-82
2022/05/31 09:43:25;;;;;;;10.00;5.00;;;13.40;99.90;;;;;;5015740;28;20301;-83
2022/05/31 09:46:04;;;;;;;9.97;4.63;;;13.30;99.90;;;;;;5016775;28;20287;-83
2022/05/31 09:48:30;;;;;;;8.93;4.93;;;13.40;99.90;;;;;;5015763;28;20580;-83
2022/05/31 09:51:16;;;;;;;9.37;5.17;;;13.20;99.90;;;;;;5014792;28;20203;-82
2022/05/31 09:59:23;;;;;;;7.07;4.57;;;13.10;99.90;;;;;;5016338;28;20201;-83
2022/05/31 10:01:49;;;;;;;7.23;4.03;;;13.10;99.90;;;;;;5014942;28;20289;-81
2022/05/31 10:04:31;;;;;;;6.53;4.37;;;13.10;99.90;;;;;;5018119;28;20207;-81
2022/05/31 10:07:01;;;;;;;9.77;4.70;;;13.10;99.90;;;;;;5017135;28;20277;-82
2022/05/31 10:09:33;;;;;;;11.83;4.40;;;13.10;99.90;;;;;;5016997;28;20289;-83
2022/05/31 10:12:11;;;;;;;8.53;4.40;;;13.20;99.90;;;;;;5015158;28;20200;-81
2022/05/31 10:14:46;;;;;;;8.73;4.47;;;13.20;99.90;;;;;;5014326;28;20407;-81
2022/05/31 10:17:32;;;;;;;9.23;4.63;;;13.20;99.90;;;;;;5015616;28;20185;-82
2022/05/31 10:20:19;;;;;;;9.77;4.30;;;13.20;99.90;;;;;;5015001;28;20177;-83
2022/05/31 10:22:59;;;;;;;8.00;4.60;;;13.30;99.90;;;;;;5015642;28;20227;-82
2022/05/31 10:25:28;;;;;;;9.43;4.53;;;13.30;99.90;;;;;;5015139;28;20178;-82
2022/05/31 10:28:09;;;;;;;11.33;4.53;;;13.40;99.90;;;;;;5014901;28;20184;-82
2022/05/31 10:30:36;;;;;;;8.37;4.43;;;13.30;99.90;;;;;;5017594;28;20194;-82
2022/05/31 10:33:19;;;;;;;12.27;4.80;;;13.50;99.90;;;;;;5017175;28;20188;-82
2022/05/31 10:35:46;;;;;;;9.77;4.23;;;13.80;99.90;;;;;;5013210;28;20179;-82
2022/05/31 10:38:18;;;;;;;8.67;4.37;;;14.30;99.90;;;;;;5017065;28;20185;-83
2022/05/31 10:41:02;;;;;;;6.57;4.40;;;14.30;99.90;;;;;;5016448;28;20201;-84
2022/05/31 10:43:43;;;;;;;7.53;4.17;;;14.40;99.90;;;;;;5018275;28;20186;-82
2022/05/31 10:46:25;;;;;;;9.27;4.43;;;14.60;99.90;;;;;;5017222;28;20198;-82
2022/05/31 10:48:54;;;;;;;12.43;3.93;;;14.80;99.90;;;;;;5016560;28;20177;-83
2022/05/31 10:51:32;;;;;;;8.53;3.83;;;15.20;99.90;;;;;;5015628;28;20194;-83
2022/05/31 10:54:26;;;;;;;7.10;3.73;;;15.30;99.90;;;;;;5016575;28;20639;-83
2022/05/31 10:57:14;;;;;;;10.07;3.30;;;15.00;99.90;;;;;;5016990;28;20202;-82
2022/05/31 11:00:28;;;;;;;10.87;4.40;;;15.10;99.90;;;;;;5019091;28;20168;-82
2022/05/31 11:03:02;;;;;;;6.80;3.53;;;15.80;99.90;;;;;;5016702;28;20551;-81
2022/05/31 11:05:50;;;;;;;8.53;3.40;;;16.20;99.90;;;;;;5016684;28;20181;-81
2022/05/31 11:11:44;;;;;;;4.53;3.10;;;15.90;99.90;;;;;;5014175;28;20195;-82
2022/05/31 11:14:38;;;;;;;7.00;2.87;;;15.60;99.90;;;;;;5013592;28;20261;-82
2022/05/31 11:17:35;;;;;;;4.93;2.57;;;15.80;99.90;;;;;;5013940;28;20202;-82
2022/05/31 11:20:26;;;;;;;5.00;3.23;;;15.70;99.80;;;;;;5013478;28;20201;-81
2022/05/31 11:23:17;;;;;;;9.33;3.83;;;15.60;99.90;;;;;;5012930;28;20238;-81
2022/05/31 11:26:07;;;;;;;5.70;2.97;;;15.80;99.90;;;;;;5016384;28;20159;-81
2022/05/31 11:28:58;;;;;;;4.70;3.03;;;15.80;99.90;;;;;;5013747;28;20193;-81
2022/05/31 11:31:24;;;;;;;5.67;2.93;;;15.90;99.90;;;;;;5013898;28;20194;-80
2022/05/31 11:33:52;;;;;;;6.30;3.10;;;15.70;99.90;;;;;;5013734;28;20181;-81
2022/05/31 11:36:39;;;;;;;7.73;3.20;;;15.80;99.90;;;;;;5014606;28;20174;-80
2022/05/31 11:39:42;;;;;;;5.00;3.27;;;15.70;99.90;;;;;;5016572;28;20547;-80
2022/05/31 11:42:29;;;;;;;4.60;3.00;;;16.10;99.90;;;;;;5017514;28;20215;-80
2022/05/31 11:45:05;;;;;;;6.90;3.50;;;15.90;99.90;;;;;;5017808;28;20190;-80
2022/05/31 11:48:15;;;;;;;10.23;3.90;;;15.80;99.70;;;;;;5016128;28;20597;-80
2022/05/31 11:51:18;;;;;;;7.93;3.97;;;15.90;99.90;;;;;;5015517;28;20263;-81
2022/05/31 11:53:59;;;;;;;6.10;4.23;;;16.00;99.90;;;;;;4999349;28;20171;-81
2022/05/31 11:56:33;;;;;;;9.53;3.80;;;15.60;98.60;;;;;;5013215;28;20205;-81
2022/05/31 11:59:20;;;;;;;4.80;3.87;;;15.50;98.70;;;;;;5017237;28;20167;-80
2022/05/31 12:02:04;;;;;;;8.47;4.00;;;15.80;99.90;;;;;;5016385;28;20575;-80
2022/05/31 12:04:57;;;;;;;8.67;4.67;;;16.00;99.70;;;;;;5016968;28;20166;-81
2022/05/31 12:07:27;;;;;;;6.70;4.40;;;16.10;99.50;;;;;;5015453;28;20179;-80
2022/05/31 12:10:09;;;;;;;5.93;4.20;;;16.70;98.90;;;;;;5015579;28;20197;-80
2022/05/31 12:12:36;;;;;;;7.03;3.80;;;16.20;97.60;;;;;;5015721;28;20242;-80
2022/05/31 12:15:24;;;;;;;6.27;3.90;;;16.20;99.50;;;;;;5017518;28;20175;-81
2022/05/31 12:18:09;;;;;;;7.43;3.83;;;16.60;99.70;;;;;;5027100;28;20269;-81
2022/05/31 12:20:38;;;;;;;11.53;3.60;;;16.40;99.90;;;;;;5020622;28;20242;-81
2022/05/31 12:23:14;;;;;;;5.67;3.83;;;17.00;99.90;;;;;;5021384;28;20206;-80
2022/05/31 12:25:52;;;;;;;6.23;3.27;;;16.10;96.90;;;;;;5018262;28;20174;-80
2022/05/31 12:28:29;;;;;;;4.80;3.00;;;15.90;96.90;;;;;;5017972;28;20175;-80
2022/05/31 12:31:09;;;;;;;3.77;2.80;;;16.20;96.20;;;;;;5018850;28;20187;-80
2022/05/31 12:36:10;;;;;;;7.37;3.17;;;16.70;99.90;;;;;;5021667;28;20197;-80
2022/05/31 12:38:55;;;;;;;8.40;3.57;;;16.60;96.30;;;;;;5020774;28;20187;-81
2022/05/31 12:41:40;;;;;;;4.90;3.80;;;16.20;96.10;;;;;;5019960;28;20202;-80
2022/05/31 12:44:27;;;;;;;4.10;3.60;;;16.20;96.50;;;;;;5018331;28;20171;-81
2022/05/31 12:46:54;;;;;;;5.10;3.33;;;16.30;96.70;;;;;;5023108;28;20178;-80
2022/05/31 12:49:24;;;;;;;4.90;3.67;;;16.30;96.70;;;;;;5020255;28;20175;-80
2022/05/31 12:52:10;;;;;;;6.80;3.40;;;16.40;97.10;;;;;;5020367;28;20196;-80
2022/05/31 12:54:58;;;;;;;2.83;2.53;;;16.40;98.00;;;;;;5019361;28;20175;-81
2022/05/31 12:57:25;;;;;;;7.43;2.80;;;16.40;95.40;;;;;;5019510;28;20670;-80
2022/05/31 12:59:53;;;;;;;4.33;2.83;;;16.40;95.70;;;;;;5019662;28;20179;-81
2022/05/31 13:02:35;;;;;;;6.53;2.60;;;16.60;98.00;;;;;;5019775;28;20219;-81
2022/05/31 13:05:08;;;;;;;5.07;2.23;;;16.90;97.00;;;;;;5018398;28;20194;-81
2022/05/31 13:07:46;;;;;;;2.90;2.30;;;16.50;95.80;;;;;;5019295;28;20201;-81
2022/05/31 13:10:37;;;;;;;2.57;2.17;;;16.40;94.60;;;;;;5021237;28;20170;-81
2022/05/31 13:21:38;;;;;;;3.90;2.00;;;16.30;94.60;;;;;;5019093;28;20235;-81
2022/05/31 13:24:17;;;;;;;2.23;1.97;;;16.40;94.80;;;;;;5016909;28;20181;-81
2022/05/31 13:26:43;;;;;;;7.50;1.90;;;16.30;95.50;;;;;;5018866;28;20241;-81
2022/05/31 13:29:10;;;;;;;2.70;1.80;;;16.60;95.50;;;;;;5018890;28;20171;-81
2022/05/31 13:31:53;;;;;;;5.60;2.50;;;16.40;94.90;;;;;;5021871;28;20198;-81
2022/05/31 13:34:42;;;;;;;4.73;2.13;;;16.50;94.80;;;;;;5023155;28;20206;-80
2022/05/31 13:37:20;;;;;;;4.97;2.37;;;16.20;95.30;;;;;;5022045;28;20187;-80
2022/05/31 13:39:49;;;;;;;4.00;2.13;;;16.30;94.60;;;;;;5021211;28;20229;-81
2022/05/31 13:42:26;;;;;;;4.60;2.50;;;16.90;96.70;;;;;;5021798;28;20268;-81
2022/05/31 13:44:52;;;;;;;4.13;2.30;;;17.10;95.80;;;;;;5021887;28;20245;-81
2022/05/31 13:47:20;;;;;;;3.73;2.10;;;17.20;94.60;;;;;;5020694;28;20441;-80
2022/05/31 13:49:47;;;;;;;3.27;2.10;;;16.70;94.40;;;;;;5020319;28;20240;-81
2022/05/31 13:52:24;;;;;;;3.17;2.30;;;16.80;95.60;;;;;;5021618;28;20198;-82